Time;durP1;ratioP1;P1;durP2;ratioP2;P2;SDS_P1;SDS_P2;PMS_P1;PMS_P2;Temp;Humidity;BMP_temperature;BMP_pressure;BME280_temperature;BME280_humidity;BME280_pressure;Samples;Min_cycle;Max_cycle;Signal;HPM_P1;HPM_P2
2022/01/07 04:02:56;;;;;;;3.67;2.67;;;-0.20;84.60;;;;;;4994347;28;20479;-77
2022/01/07 04:05:23;;;;;;;5.37;2.67;;;-0.30;84.90;;;;;;4996132;28;20449;-77
2022/01/07 04:07:50;;;;;;;3.63;2.67;;;-0.50;85.60;;;;;;4995760;28;20970;-77
2022/01/07 04:10:17;;;;;;;3.53;2.70;;;-0.50;86.00;;;;;;4995776;28;20821;-77
2022/01/07 04:12:44;;;;;;;5.00;2.50;;;-0.50;86.00;;;;;;4995968;28;20464;-77
2022/01/07 04:15:11;;;;;;;5.20;3.07;;;-0.50;86.20;;;;;;4995977;28;20499;-77
2022/01/07 04:17:39;;;;;;;4.73;2.87;;;-0.40;86.00;;;;;;5033418;23;20492;-72
2022/01/07 04:20:09;;;;;;;3.90;3.20;;;-0.50;85.50;;;;;;5015309;28;21053;-72
2022/01/07 04:22:36;;;;;;;3.83;2.83;;;-0.50;85.80;;;;;;5015590;28;20437;-71
2022/01/07 04:25:05;;;;;;;3.93;2.93;;;-0.50;86.30;;;;;;5015224;28;21013;-72
2022/01/07 04:27:33;;;;;;;3.60;2.80;;;-0.40;86.40;;;;;;5015403;28;20543;-72
2022/01/07 04:29:59;;;;;;;3.73;2.80;;;-0.30;85.70;;;;;;5015097;28;20936;-71
2022/01/07 04:32:26;;;;;;;3.80;2.50;;;-0.30;85.70;;;;;;5015405;28;20863;-71
2022/01/07 04:34:53;;;;;;;3.40;2.43;;;-0.10;85.30;;;;;;5015352;28;20871;-72
2022/01/07 04:37:21;;;;;;;3.87;2.87;;;0.00;84.80;;;;;;5015251;28;20464;-72
2022/01/07 04:39:47;;;;;;;3.93;2.97;;;0.10;84.10;;;;;;5015194;28;20488;-71
2022/01/07 04:42:14;;;;;;;5.20;3.23;;;-0.20;84.30;;;;;;5015205;28;20501;-71
2022/01/07 04:44:42;;;;;;;4.07;2.97;;;-0.30;85.10;;;;;;5015183;28;20479;-71
2022/01/07 04:47:09;;;;;;;4.27;2.93;;;-0.20;85.10;;;;;;5015024;28;20468;-71
2022/01/07 04:49:36;;;;;;;3.87;2.87;;;-0.20;85.10;;;;;;5015070;28;20490;-72
2022/01/07 04:52:03;;;;;;;4.00;3.07;;;-0.30;85.30;;;;;;5015034;28;20491;-71
2022/01/07 04:54:32;;;;;;;4.77;3.07;;;-0.50;85.90;;;;;;5014996;28;20501;-71
2022/01/07 04:56:59;;;;;;;3.73;2.87;;;-0.40;86.80;;;;;;5014165;28;20488;-72
2022/01/07 04:59:26;;;;;;;3.70;2.87;;;-0.30;86.30;;;;;;5014299;28;20534;-71
2022/01/07 05:01:54;;;;;;;3.53;2.90;;;-0.20;85.90;;;;;;5014847;28;20877;-72
2022/01/07 05:04:21;;;;;;;4.30;3.13;;;-0.20;85.90;;;;;;5014794;28;20502;-71
2022/01/07 05:06:47;;;;;;;3.43;2.53;;;-0.30;85.80;;;;;;5014715;28;20468;-72
2022/01/07 05:09:16;;;;;;;3.63;2.30;;;-0.40;86.30;;;;;;5014676;28;20540;-72
2022/01/07 05:11:45;;;;;;;4.80;3.20;;;-0.20;86.60;;;;;;5014613;28;20651;-71
2022/01/07 05:14:12;;;;;;;3.90;2.67;;;-0.30;86.30;;;;;;5014630;28;20522;-70
2022/01/07 05:16:39;;;;;;;3.83;3.30;;;-0.40;86.30;;;;;;5014343;28;20480;-73
2022/01/07 05:19:06;;;;;;;4.00;3.23;;;-0.30;86.90;;;;;;5014196;28;20522;-72
2022/01/07 05:21:33;;;;;;;4.20;3.20;;;-0.30;86.50;;;;;;5014495;28;20452;-72
2022/01/07 05:23:59;;;;;;;4.10;3.27;;;-0.30;86.80;;;;;;5014451;28;20444;-72
2022/01/07 05:26:26;;;;;;;4.50;3.17;;;-0.30;87.10;;;;;;5014322;28;20522;-72
2022/01/07 05:28:54;;;;;;;4.20;3.60;;;-0.10;87.00;;;;;;5014339;28;20518;-71
2022/01/07 05:31:23;;;;;;;4.13;3.10;;;-0.10;86.10;;;;;;5014337;28;20443;-72
2022/01/07 05:33:49;;;;;;;4.00;3.10;;;-0.10;86.20;;;;;;5014225;28;20539;-72
2022/01/07 05:36:16;;;;;;;4.07;3.03;;;-0.10;86.20;;;;;;5014232;28;20440;-72
2022/01/07 05:38:43;;;;;;;4.43;2.90;;;-0.10;86.60;;;;;;5014171;28;20530;-72
2022/01/07 05:41:09;;;;;;;3.80;3.13;;;0.00;86.30;;;;;;5014174;28;20506;-72
2022/01/07 05:43:36;;;;;;;4.23;3.07;;;0.00;86.10;;;;;;5013863;28;21005;-72
2022/01/07 05:46:04;;;;;;;4.20;2.80;;;0.10;86.20;;;;;;5013972;28;20464;-72
2022/01/07 05:48:32;;;;;;;3.60;2.90;;;0.20;85.70;;;;;;5013976;28;20531;-72
2022/01/07 05:50:59;;;;;;;3.23;2.20;;;0.30;85.40;;;;;;5014037;28;20448;-72
2022/01/07 05:53:25;;;;;;;3.87;2.97;;;0.20;84.90;;;;;;5013979;28;20502;-72
2022/01/07 05:55:52;;;;;;;5.00;3.50;;;0.00;85.60;;;;;;5013970;28;20506;-72
2022/01/07 05:58:19;;;;;;;3.70;3.00;;;0.10;86.00;;;;;;5013828;28;20522;-71
2022/01/07 06:00:46;;;;;;;4.33;3.10;;;0.10;85.80;;;;;;5013915;28;20502;-72
2022/01/07 06:03:14;;;;;;;4.30;3.50;;;0.00;86.30;;;;;;5013852;28;20543;-71
2022/01/07 06:05:41;;;;;;;4.80;3.27;;;-0.10;86.60;;;;;;5013801;28;20502;-71
2022/01/07 06:08:09;;;;;;;4.77;3.60;;;-0.10;87.20;;;;;;5013555;28;20523;-71
2022/01/07 06:10:35;;;;;;;4.03;2.80;;;-0.30;87.40;;;;;;5013764;28;20455;-72
2022/01/07 06:13:02;;;;;;;3.63;2.90;;;-0.10;88.10;;;;;;5013415;28;20998;-72
2022/01/07 06:15:29;;;;;;;4.20;3.33;;;0.00;87.80;;;;;;5013733;28;20500;-71
2022/01/07 06:17:56;;;;;;;4.03;2.97;;;0.10;86.90;;;;;;5013266;28;20983;-72
2022/01/07 06:20:24;;;;;;;3.90;3.23;;;0.10;86.90;;;;;;5014019;28;20542;-73
2022/01/07 06:22:50;;;;;;;4.03;3.07;;;0.30;86.30;;;;;;5014142;28;20449;-72
2022/01/07 06:25:17;;;;;;;3.87;2.93;;;0.40;85.90;;;;;;5014145;28;20445;-72
2022/01/07 06:27:44;;;;;;;3.57;2.80;;;0.30;85.50;;;;;;5013654;28;20468;-72
2022/01/07 06:30:11;;;;;;;3.60;3.07;;;0.20;85.70;;;;;;5013960;28;20456;-72
2022/01/07 06:32:38;;;;;;;4.33;3.30;;;0.00;87.30;;;;;;5014542;28;20455;-73
2022/01/07 06:35:05;;;;;;;4.00;3.10;;;0.10;88.10;;;;;;5013894;28;20467;-71
2022/01/07 06:37:33;;;;;;;4.23;3.07;;;0.00;86.80;;;;;;5013522;28;20475;-72
2022/01/07 06:40:00;;;;;;;4.30;3.90;;;0.00;86.90;;;;;;5013555;28;20983;-72
2022/01/07 06:42:27;;;;;;;4.37;3.20;;;-0.10;86.80;;;;;;5013934;28;20450;-72
2022/01/07 06:44:53;;;;;;;4.03;3.13;;;-0.20;87.50;;;;;;5013688;28;20503;-74
2022/01/07 06:47:20;;;;;;;4.20;3.10;;;-0.20;87.20;;;;;;5013890;28;20468;-73
2022/01/07 06:49:47;;;;;;;5.20;3.70;;;-0.10;87.20;;;;;;5013975;28;20444;-73
2022/01/07 06:52:14;;;;;;;4.50;3.70;;;0.00;87.10;;;;;;5014425;28;20448;-73
2022/01/07 06:54:42;;;;;;;4.13;3.47;;;0.00;86.50;;;;;;5013854;28;20448;-73
2022/01/07 06:57:09;;;;;;;4.00;3.30;;;-0.10;86.70;;;;;;5013670;28;20476;-72
2022/01/07 06:59:35;;;;;;;3.70;3.10;;;-0.10;86.90;;;;;;5013621;28;20483;-73
2022/01/07 07:02:02;;;;;;;4.23;3.40;;;0.10;86.70;;;;;;5013653;28;20459;-73
2022/01/07 07:04:29;;;;;;;4.93;3.23;;;0.10;86.00;;;;;;5013608;28;20475;-74
2022/01/07 07:06:56;;;;;;;4.43;3.50;;;0.10;86.20;;;;;;5013145;28;20511;-76
2022/01/07 07:09:23;;;;;;;3.50;3.17;;;0.30;86.30;;;;;;5013653;28;20456;-75
2022/01/07 07:11:51;;;;;;;3.80;2.80;;;0.30;85.20;;;;;;5013364;28;20447;-75
2022/01/07 07:14:18;;;;;;;3.90;3.10;;;0.40;85.60;;;;;;5013548;28;20459;-73
2022/01/07 07:16:44;;;;;;;4.00;3.10;;;0.30;84.80;;;;;;5013164;28;20491;-73
2022/01/07 07:19:11;;;;;;;3.80;3.00;;;0.40;85.20;;;;;;5013373;28;20491;-73
2022/01/07 07:21:39;;;;;;;3.60;3.00;;;0.40;84.90;;;;;;5015650;28;20444;-72
2022/01/07 07:24:06;;;;;;;3.77;2.97;;;0.40;85.00;;;;;;5017105;28;20460;-72
2022/01/07 07:26:33;;;;;;;3.73;3.00;;;0.30;85.00;;;;;;5016963;28;20476;-73
2022/01/07 07:29:01;;;;;;;3.77;3.07;;;0.20;85.40;;;;;;5016798;28;20452;-72
2022/01/07 07:31:30;;;;;;;3.63;2.87;;;0.20;85.70;;;;;;5017090;28;20448;-72
2022/01/07 07:34:19;;;;;;;4.23;2.80;;;0.00;86.00;;;;;;5016716;28;20484;-71
2022/01/07 07:36:46;;;;;;;3.50;2.47;;;-0.10;86.50;;;;;;5016780;28;20476;-73
2022/01/07 07:39:14;;;;;;;4.00;3.40;;;-0.10;86.90;;;;;;5016663;28;20482;-73
2022/01/07 07:41:42;;;;;;;3.90;2.77;;;0.10;86.90;;;;;;5016888;28;20447;-71
2022/01/07 07:44:10;;;;;;;3.70;2.80;;;0.10;85.90;;;;;;5016615;28;20444;-73
2022/01/07 07:46:40;;;;;;;3.70;2.60;;;0.20;86.30;;;;;;5016814;28;20476;-72
2022/01/07 07:49:08;;;;;;;4.07;2.80;;;0.30;85.90;;;;;;5017381;28;20546;-72
2022/01/07 07:51:36;;;;;;;4.43;2.90;;;0.40;85.80;;;;;;5017330;28;20456;-73
2022/01/07 07:54:03;;;;;;;3.60;2.60;;;0.30;85.60;;;;;;5017951;28;20452;-73
2022/01/07 07:56:30;;;;;;;3.63;2.77;;;0.50;85.40;;;;;;5018066;28;20491;-73
2022/01/07 07:58:58;;;;;;;3.20;2.33;;;0.70;84.60;;;;;;5017132;28;20970;-72
2022/01/07 08:01:26;;;;;;;3.83;3.07;;;0.80;84.10;;;;;;5016030;28;20480;-72
2022/01/07 08:03:53;;;;;;;3.70;2.60;;;0.90;83.70;;;;;;5016436;28;20524;-71
2022/01/07 08:06:20;;;;;;;3.70;2.87;;;1.00;83.70;;;;;;5015687;28;20514;-71
2022/01/07 08:08:47;;;;;;;3.60;2.70;;;1.20;82.30;;;;;;5015809;28;20452;-72
2022/01/07 08:11:15;;;;;;;3.67;3.17;;;1.10;82.90;;;;;;5015785;28;20448;-71
2022/01/07 08:16:27;;;;;;;3.87;2.73;;;1.00;82.70;;;;;;5015513;28;20804;-72
2022/01/07 08:18:57;;;;;;;3.90;2.40;;;0.70;83.40;;;;;;5015669;28;20506;-72
2022/01/07 08:21:26;;;;;;;3.77;2.87;;;0.70;83.90;;;;;;5015263;28;20831;-72
2022/01/07 08:23:54;;;;;;;4.23;3.10;;;0.60;84.20;;;;;;5016319;28;20474;-73
2022/01/07 08:26:23;;;;;;;3.87;2.80;;;0.90;84.20;;;;;;5015433;28;20476;-73
2022/01/07 08:28:53;;;;;;;4.07;3.00;;;0.90;83.80;;;;;;5015475;28;20448;-72
2022/01/07 08:34:53;;;;;;;4.20;3.23;;;0.80;83.40;;;;;;5015136;28;20904;-73
2022/01/07 08:37:01;;;;;;;4.80;3.33;;;1.10;83.20;;;;;;5014015;28;20456;-72
2022/01/07 08:39:28;;;;;;;4.60;3.47;;;0.90;82.40;;;;;;5014953;28;20865;-72
2022/01/07 08:41:55;;;;;;;4.33;2.60;;;1.00;87.50;;;;;;5014915;28;20938;-72
2022/01/07 08:44:25;;;;;;;3.50;2.50;;;1.00;83.50;;;;;;5015178;28;20448;-72
2022/01/07 08:46:52;;;;;;;3.93;2.93;;;1.00;82.80;;;;;;5015124;28;20472;-72
2022/01/07 08:49:21;;;;;;;3.83;2.63;;;1.00;83.10;;;;;;5015080;28;20507;-72
2022/01/07 08:51:47;;;;;;;4.37;3.30;;;1.20;82.60;;;;;;5015039;28;20480;-72
2022/01/07 08:54:14;;;;;;;5.07;3.60;;;1.30;82.70;;;;;;5014980;28;20444;-72
2022/01/07 08:56:41;;;;;;;4.10;2.60;;;1.30;82.50;;;;;;5014839;28;20474;-71
2022/01/07 08:59:08;;;;;;;3.57;2.60;;;1.40;81.90;;;;;;5014851;28;20482;-71
2022/01/07 09:01:34;;;;;;;3.33;2.33;;;1.50;81.70;;;;;;5014784;28;20484;-70
2022/01/07 09:04:01;;;;;;;3.67;2.33;;;1.50;81.90;;;;;;5014833;28;20445;-70
2022/01/07 09:06:29;;;;;;;3.77;2.47;;;1.70;81.50;;;;;;5014724;28;20471;-70
2022/01/07 09:08:56;;;;;;;3.60;2.63;;;1.60;80.20;;;;;;5014703;28;20452;-70
2022/01/07 09:11:22;;;;;;;4.30;2.57;;;1.40;81.20;;;;;;5014658;28;20456;-70
2022/01/07 09:13:51;;;;;;;3.00;2.20;;;1.50;81.90;;;;;;5014681;28;20475;-70
2022/01/07 09:16:18;;;;;;;4.47;2.47;;;1.40;81.40;;;;;;5014353;28;20535;-70
2022/01/07 09:18:45;;;;;;;4.27;2.80;;;1.30;81.80;;;;;;5014252;28;20425;-70
2022/01/07 09:21:12;;;;;;;3.10;2.47;;;1.40;82.40;;;;;;5014705;28;20483;-70
2022/01/07 09:23:41;;;;;;;3.53;2.67;;;1.30;82.00;;;;;;5015379;28;20454;-71
2022/01/07 09:26:08;;;;;;;3.70;2.60;;;1.40;82.50;;;;;;5014959;28;20915;-70
2022/01/07 09:28:35;;;;;;;3.80;3.00;;;1.50;81.90;;;;;;5015713;28;20452;-70
2022/01/07 09:31:02;;;;;;;3.50;2.40;;;1.50;81.70;;;;;;5014965;28;20449;-70
2022/01/07 09:33:29;;;;;;;4.43;3.27;;;1.60;81.70;;;;;;5014295;28;20817;-72
2022/01/07 09:35:55;;;;;;;3.33;2.30;;;1.80;81.70;;;;;;5014682;28;20460;-70
2022/01/07 09:38:22;;;;;;;3.53;2.17;;;1.90;80.90;;;;;;5014461;28;20519;-71
2022/01/07 09:40:51;;;;;;;3.80;2.87;;;1.80;80.60;;;;;;5014504;28;20480;-70
2022/01/07 09:43:18;;;;;;;3.50;2.30;;;1.90;80.60;;;;;;5014251;28;20474;-71
2022/01/07 09:45:45;;;;;;;3.23;2.10;;;1.90;80.60;;;;;;5014392;28;20452;-70
2022/01/07 09:48:12;;;;;;;3.10;2.00;;;1.70;80.50;;;;;;5014329;28;20463;-70
2022/01/07 09:50:39;;;;;;;3.30;2.47;;;1.70;81.00;;;;;;5014332;28;20913;-72
2022/01/07 09:53:07;;;;;;;3.50;2.50;;;1.50;81.70;;;;;;5014672;28;20555;-72
2022/01/07 09:55:34;;;;;;;3.90;2.53;;;1.50;81.90;;;;;;5014986;28;20455;-72
2022/01/07 09:58:05;;;;;;;4.40;3.10;;;1.50;83.10;;;;;;5014210;28;20463;-71
2022/01/07 10:00:38;;;;;;;3.40;2.30;;;1.40;82.10;;;;;;5015084;28;20468;-71
2022/01/07 10:03:07;;;;;;;3.40;2.43;;;1.30;82.30;;;;;;5014055;28;20452;-70
2022/01/07 10:05:41;;;;;;;3.33;2.10;;;1.20;82.90;;;;;;5014299;28;20830;-70
2022/01/07 10:08:21;;;;;;;3.30;2.50;;;1.30;83.00;;;;;;5013995;28;20488;-71
2022/01/07 10:10:48;;;;;;;3.40;2.10;;;1.40;82.80;;;;;;5014135;28;20467;-71
2022/01/07 10:13:20;;;;;;;3.70;2.73;;;1.50;83.20;;;;;;5014328;28;20450;-70
2022/01/07 10:15:47;;;;;;;3.70;2.67;;;1.40;83.20;;;;;;5014158;28;20943;-70
2022/01/07 10:18:16;;;;;;;3.20;2.23;;;1.50;83.20;;;;;;5073405;23;20509;-76
2022/01/07 10:20:44;;;;;;;3.70;2.60;;;1.50;83.20;;;;;;5061978;28;20482;-77
2022/01/07 10:23:13;;;;;;;3.37;2.50;;;1.60;84.20;;;;;;5061463;28;20537;-76
2022/01/07 10:25:41;;;;;;;3.67;2.40;;;1.70;84.70;;;;;;5061467;28;20477;-76
2022/01/07 10:28:11;;;;;;;3.50;2.40;;;1.70;85.00;;;;;;5075498;28;20458;-76
2022/01/07 10:30:41;;;;;;;3.70;2.87;;;1.60;84.60;;;;;;5080582;28;20933;-75
2022/01/07 10:33:20;;;;;;;3.30;2.20;;;1.60;84.90;;;;;;5081936;28;20457;-76
2022/01/07 10:35:47;;;;;;;3.47;2.43;;;1.80;85.30;;;;;;5080393;28;20453;-76
2022/01/07 10:38:19;;;;;;;4.03;2.60;;;1.70;84.50;;;;;;5073083;28;20523;-73
2022/01/07 10:40:47;;;;;;;4.40;3.67;;;1.50;85.30;;;;;;5072768;28;20874;-74
2022/01/07 10:43:20;;;;;;;3.20;2.30;;;1.60;86.40;;;;;;5073279;28;20534;-74
2022/01/07 10:45:50;;;;;;;3.20;2.10;;;1.70;85.40;;;;;;5073381;28;20453;-74
2022/01/07 10:48:19;;;;;;;4.13;2.80;;;1.70;85.00;;;;;;5072978;28;20461;-74
2022/01/07 10:50:47;;;;;;;3.30;2.20;;;1.50;86.00;;;;;;5073026;28;20511;-74
2022/01/07 10:53:17;;;;;;;3.60;2.63;;;1.40;86.70;;;;;;5072966;28;20453;-74
2022/01/07 10:55:59;;;;;;;3.47;3.00;;;1.50;86.90;;;;;;5073863;28;20454;-75
2022/01/07 10:58:26;;;;;;;3.30;2.30;;;1.60;86.90;;;;;;5076888;28;20465;-72
2022/01/07 11:00:54;;;;;;;3.40;2.23;;;1.50;87.10;;;;;;5076822;28;20477;-74
2022/01/07 11:03:21;;;;;;;3.80;2.70;;;1.80;87.20;;;;;;5077037;28;20515;-74
2022/01/07 11:05:48;;;;;;;3.50;2.97;;;1.90;85.80;;;;;;5076927;28;20499;-74
2022/01/07 11:08:16;;;;;;;3.90;2.60;;;1.90;85.30;;;;;;5076417;28;20889;-74
2022/01/07 11:10:43;;;;;;;4.90;2.73;;;1.90;85.80;;;;;;5076802;28;20488;-74
2022/01/07 11:13:10;;;;;;;3.40;2.47;;;2.10;85.70;;;;;;5082187;28;20453;-74
2022/01/07 11:15:37;;;;;;;3.83;2.80;;;2.10;85.20;;;;;;5082260;28;20442;-74
2022/01/07 11:18:06;;;;;;;3.50;2.80;;;2.20;85.60;;;;;;5083566;28;20469;-74
2022/01/07 11:20:33;;;;;;;4.60;2.83;;;2.00;85.00;;;;;;5082774;28;20980;-74
2022/01/07 11:23:00;;;;;;;5.30;3.93;;;1.90;86.20;;;;;;5082188;28;20456;-73
2022/01/07 11:25:32;;;;;;;3.87;3.07;;;2.00;86.50;;;;;;5082627;28;20456;-74
2022/01/07 11:28:00;;;;;;;4.27;2.53;;;2.20;86.80;;;;;;5082503;28;20465;-74
2022/01/07 11:30:32;;;;;;;3.27;2.30;;;2.40;86.00;;;;;;5085417;28;20858;-72
2022/01/07 11:33:00;;;;;;;3.50;2.23;;;2.40;84.70;;;;;;5085326;28;20434;-73
2022/01/07 11:35:45;;;;;;;4.70;2.40;;;2.40;85.40;;;;;;5082742;28;20786;-73
2022/01/07 11:38:40;;;;;;;3.43;2.23;;;2.50;86.00;;;;;;5076569;28;20560;-74
2022/01/07 11:41:17;;;;;;;4.80;2.77;;;2.60;85.40;;;;;;5076097;28;20493;-74
2022/01/07 11:43:46;;;;;;;3.60;2.87;;;2.60;84.80;;;;;;5076090;28;20461;-73
2022/01/07 11:46:37;;;;;;;3.43;2.37;;;2.50;84.50;;;;;;5076074;28;20518;-76
2022/01/07 11:49:04;;;;;;;3.50;2.30;;;2.70;84.40;;;;;;5076113;28;20433;-75
2022/01/07 11:51:43;;;;;;;3.67;2.43;;;2.60;84.60;;;;;;5075713;28;20982;-74
2022/01/07 11:54:13;;;;;;;3.40;2.50;;;2.50;84.30;;;;;;5075898;28;20432;-73
2022/01/07 11:56:40;;;;;;;3.57;2.37;;;2.60;84.20;;;;;;5075515;28;21031;-75
2022/01/07 12:02:07;;;;;;;3.30;2.20;;;2.50;84.50;;;;;;5085396;28;20481;-74
2022/01/07 12:04:35;;;;;;;3.70;2.30;;;2.50;84.40;;;;;;5086184;28;20461;-73
2022/01/07 12:07:05;;;;;;;3.50;2.23;;;2.40;84.70;;;;;;5084714;28;20971;-73
2022/01/07 12:09:38;;;;;;;3.57;2.70;;;2.40;84.90;;;;;;5084587;28;20438;-74
2022/01/07 12:12:11;;;;;;;3.30;2.00;;;2.60;85.40;;;;;;5084078;28;20434;-74
2022/01/07 12:14:41;;;;;;;3.40;2.20;;;2.70;84.80;;;;;;5084417;28;20421;-74
2022/01/07 12:17:13;;;;;;;3.50;2.20;;;2.90;83.10;;;;;;5084013;28;20481;-73
2022/01/07 12:20:16;;;;;;;3.40;2.03;;;2.90;82.90;;;;;;5083477;28;20520;-75
2022/01/07 12:22:49;;;;;;;3.40;2.20;;;2.80;82.90;;;;;;5084600;28;20489;-74
2022/01/07 12:25:16;;;;;;;4.27;2.50;;;2.90;83.50;;;;;;5083407;28;20449;-74
2022/01/07 12:27:43;;;;;;;3.10;1.80;;;3.00;82.60;;;;;;5082668;28;20515;-74
2022/01/07 12:30:12;;;;;;;3.17;1.90;;;3.10;82.30;;;;;;5081293;28;20445;-73
2022/01/07 12:32:40;;;;;;;4.17;2.37;;;3.20;81.90;;;;;;5081873;28;20500;-74
2022/01/07 12:35:09;;;;;;;2.90;1.90;;;3.30;81.80;;;;;;5082201;28;20453;-76
2022/01/07 12:37:37;;;;;;;3.10;1.67;;;3.30;81.00;;;;;;5082579;28;20465;-75
2022/01/07 12:40:09;;;;;;;2.83;1.93;;;2.90;81.10;;;;;;5080968;28;20446;-74
2022/01/07 12:42:42;;;;;;;2.90;1.60;;;3.00;82.20;;;;;;5081891;28;20461;-73
2022/01/07 12:45:17;;;;;;;3.40;2.00;;;3.00;81.80;;;;;;5082512;28;20449;-73
2022/01/07 12:47:44;;;;;;;3.10;1.77;;;2.80;81.80;;;;;;5082606;28;20468;-74
2022/01/07 12:50:11;;;;;;;3.37;2.20;;;2.60;82.20;;;;;;5082951;28;20788;-74
2022/01/07 12:52:41;;;;;;;3.00;1.90;;;2.70;83.00;;;;;;5082652;28;20441;-74
2022/01/07 12:55:13;;;;;;;3.40;1.80;;;2.70;83.10;;;;;;5083155;28;20924;-73
2022/01/07 12:57:42;;;;;;;3.00;2.10;;;2.80;82.80;;;;;;5082253;28;20472;-73
2022/01/07 13:00:21;;;;;;;3.07;2.10;;;2.90;82.80;;;;;;5083036;28;20449;-75
2022/01/07 13:02:50;;;;;;;3.20;2.13;;;2.90;82.60;;;;;;5082530;28;20521;-73
2022/01/07 13:05:23;;;;;;;3.70;2.00;;;3.00;82.60;;;;;;5082752;28;20453;-73
2022/01/07 13:07:51;;;;;;;3.20;1.97;;;3.10;82.00;;;;;;5081967;28;20963;-73
2022/01/07 13:13:09;;;;;;;3.13;2.00;;;2.90;81.80;;;;;;5059227;28;20450;-74
2022/01/07 13:15:42;;;;;;;3.30;2.20;;;2.70;82.70;;;;;;5062473;28;20438;-73
2022/01/07 13:18:19;;;;;;;2.80;1.63;;;2.40;83.40;;;;;;5061355;28;20506;-73
2022/01/07 13:20:46;;;;;;;3.00;1.57;;;2.40;84.10;;;;;;5061990;28;20484;-73
2022/01/07 13:23:14;;;;;;;3.43;1.90;;;2.50;84.20;;;;;;5061067;28;20925;-73
2022/01/07 13:25:42;;;;;;;2.93;1.60;;;2.60;84.20;;;;;;5061559;28;20446;-71
2022/01/07 13:28:09;;;;;;;3.10;1.73;;;2.90;83.80;;;;;;5061319;28;20467;-73
2022/01/07 13:30:37;;;;;;;2.60;1.40;;;3.00;82.90;;;;;;5061416;28;20449;-73
2022/01/07 13:33:09;;;;;;;2.80;1.40;;;2.90;82.60;;;;;;5061202;28;20442;-73
2022/01/07 13:35:35;;;;;;;3.17;2.10;;;3.00;82.60;;;;;;5062200;28;20446;-73
2022/01/07 13:38:03;;;;;;;2.90;1.70;;;3.10;82.80;;;;;;5060938;28;20470;-72
2022/01/07 13:40:32;;;;;;;2.90;1.80;;;3.40;82.40;;;;;;5061048;28;20446;-73
2022/01/07 13:43:08;;;;;;;3.10;1.70;;;3.70;80.20;;;;;;5061609;28;20542;-74
2022/01/07 13:45:35;;;;;;;2.87;1.50;;;3.80;79.90;;;;;;5061267;28;20423;-73
2022/01/07 13:48:07;;;;;;;2.73;1.57;;;3.90;79.60;;;;;;5061107;28;20451;-73
2022/01/07 13:50:34;;;;;;;3.10;1.90;;;4.20;80.80;;;;;;5060509;28;20454;-73
2022/01/07 13:53:11;;;;;;;3.37;1.50;;;5.20;76.00;;;;;;5061233;28;20780;-73
2022/01/07 13:55:39;;;;;;;2.90;1.67;;;5.50;74.00;;;;;;5060782;28;20971;-73
2022/01/07 13:58:09;;;;;;;3.37;1.60;;;4.90;75.00;;;;;;5060961;28;20543;-73
2022/01/07 14:00:36;;;;;;;3.10;1.60;;;4.70;75.80;;;;;;5060836;28;20442;-73
2022/01/07 14:03:04;;;;;;;3.13;1.53;;;4.40;76.80;;;;;;5060358;28;20486;-74
2022/01/07 14:05:31;;;;;;;3.00;1.60;;;4.40;77.50;;;;;;5060722;28;20453;-72
2022/01/07 14:07:58;;;;;;;2.70;1.50;;;4.40;77.70;;;;;;5060020;28;20973;-71
2022/01/07 14:10:26;;;;;;;3.30;1.37;;;4.00;78.00;;;;;;5060140;28;20454;-73
2022/01/07 14:12:55;;;;;;;2.70;1.57;;;3.50;79.80;;;;;;5060128;28;20442;-73
2022/01/07 14:15:26;;;;;;;2.53;1.30;;;3.40;80.30;;;;;;5059297;28;20826;-73
2022/01/07 14:18:05;;;;;;;2.90;1.70;;;3.50;81.00;;;;;;5060853;28;20478;-74
2022/01/07 14:20:43;;;;;;;3.10;1.70;;;3.50;80.90;;;;;;5056584;28;20797;-73
2022/01/07 14:23:15;;;;;;;3.00;1.80;;;3.60;80.60;;;;;;5053199;28;20466;-74
2022/01/07 14:25:42;;;;;;;3.90;2.10;;;3.10;81.80;;;;;;5053322;28;20450;-75
2022/01/07 14:28:09;;;;;;;2.90;1.50;;;3.00;82.20;;;;;;5052903;28;21031;-74
2022/01/07 14:30:37;;;;;;;2.90;1.60;;;3.00;83.00;;;;;;5055648;28;20520;-74
2022/01/07 14:33:03;;;;;;;2.83;1.50;;;3.10;82.90;;;;;;5057488;28;20508;-75
2022/01/07 14:35:30;;;;;;;2.70;1.60;;;3.30;82.10;;;;;;5057445;28;20457;-74
2022/01/07 14:37:57;;;;;;;3.53;2.17;;;3.30;82.20;;;;;;5057329;28;20470;-74
2022/01/07 14:40:24;;;;;;;2.80;1.50;;;3.30;82.40;;;;;;5057376;28;20446;-74
2022/01/07 14:42:50;;;;;;;3.43;1.53;;;3.40;82.10;;;;;;5057319;28;20548;-74
2022/01/07 14:45:17;;;;;;;3.70;1.40;;;3.50;81.80;;;;;;5057224;28;20461;-74
2022/01/07 14:47:46;;;;;;;2.60;1.30;;;3.40;81.50;;;;;;5057131;28;20469;-74
2022/01/07 14:50:14;;;;;;;3.03;1.43;;;3.20;81.90;;;;;;5057181;28;20450;-74
2022/01/07 14:52:41;;;;;;;3.43;1.87;;;3.20;82.40;;;;;;5057064;28;20537;-74
2022/01/07 14:55:09;;;;;;;2.87;1.60;;;3.40;82.30;;;;;;5056955;28;20453;-71
2022/01/07 14:57:36;;;;;;;2.80;1.60;;;3.30;81.90;;;;;;5056631;28;20867;-75
2022/01/07 15:00:05;;;;;;;3.40;2.20;;;3.00;83.00;;;;;;5056629;28;20930;-73
2022/01/07 15:02:32;;;;;;;2.60;1.37;;;2.90;83.60;;;;;;5056861;28;20482;-75
2022/01/07 15:05:00;;;;;;;2.90;1.53;;;3.00;83.20;;;;;;5056762;28;20446;-74
2022/01/07 15:07:27;;;;;;;3.40;1.80;;;2.90;83.30;;;;;;5056682;28;20466;-75
2022/01/07 15:09:53;;;;;;;2.90;1.60;;;2.80;84.30;;;;;;5056643;28;20496;-74
2022/01/07 15:12:20;;;;;;;2.67;1.37;;;2.70;84.40;;;;;;5056663;28;20497;-73
2022/01/07 15:14:47;;;;;;;3.17;1.57;;;2.90;84.70;;;;;;5056819;28;20492;-75
2022/01/07 15:17:14;;;;;;;2.90;1.50;;;3.00;84.40;;;;;;5056249;28;20520;-73
2022/01/07 15:19:40;;;;;;;2.67;1.33;;;3.00;83.70;;;;;;5056482;28;20450;-73
2022/01/07 15:22:09;;;;;;;2.70;1.50;;;3.00;83.60;;;;;;5056489;28;20482;-73
2022/01/07 15:24:36;;;;;;;3.00;1.70;;;3.10;83.80;;;;;;5056547;28;20446;-73
2022/01/07 15:27:03;;;;;;;2.70;1.27;;;3.20;83.30;;;;;;5056468;28;20493;-73
2022/01/07 15:29:30;;;;;;;2.60;1.53;;;3.20;82.80;;;;;;5056437;28;20446;-73
2022/01/07 15:31:57;;;;;;;2.70;1.23;;;3.10;83.10;;;;;;5056292;28;20442;-73
2022/01/07 15:34:25;;;;;;;2.50;1.20;;;3.00;83.50;;;;;;5056297;28;20600;-72
2022/01/07 15:36:52;;;;;;;2.60;1.20;;;3.10;83.20;;;;;;5056345;28;20458;-73
2022/01/07 15:39:22;;;;;;;3.20;1.37;;;3.00;83.30;;;;;;5056325;28;20476;-73
2022/01/07 15:41:50;;;;;;;2.53;1.00;;;3.10;83.30;;;;;;5055204;28;20516;-72
2022/01/07 15:44:16;;;;;;;3.07;1.10;;;3.20;83.00;;;;;;5056087;28;20463;-74
2022/01/07 15:46:43;;;;;;;2.37;1.00;;;3.30;82.70;;;;;;5056193;28;20466;-73
2022/01/07 15:49:10;;;;;;;2.63;1.30;;;3.30;82.60;;;;;;5056562;28;20873;-72
2022/01/07 15:51:36;;;;;;;2.50;1.07;;;3.40;82.20;;;;;;5055910;28;20801;-74
2022/01/07 15:54:03;;;;;;;3.30;1.30;;;3.50;82.00;;;;;;5056176;28;20451;-74
2022/01/07 15:56:33;;;;;;;4.27;1.50;;;3.50;81.20;;;;;;5056163;28;20512;-73
2022/01/07 15:59:00;;;;;;;2.60;1.10;;;3.30;82.20;;;;;;5056155;28;20441;-73
2022/01/07 16:01:27;;;;;;;2.57;1.20;;;3.40;82.40;;;;;;5055832;28;20446;-73
2022/01/07 16:03:53;;;;;;;2.53;1.07;;;3.20;82.30;;;;;;5055749;28;20482;-73
2022/01/07 16:06:20;;;;;;;2.87;1.13;;;3.20;83.00;;;;;;5055843;28;20578;-73
2022/01/07 16:08:47;;;;;;;2.47;1.00;;;3.20;83.20;;;;;;5055990;28;20864;-74
2022/01/07 16:11:13;;;;;;;2.93;1.17;;;3.30;83.10;;;;;;5055741;28;20462;-74
2022/01/07 16:13:41;;;;;;;2.77;1.40;;;3.20;83.00;;;;;;5055726;28;20442;-73
2022/01/07 16:16:12;;;;;;;2.70;1.40;;;3.20;82.80;;;;;;5055471;28;20504;-74
2022/01/07 16:18:39;;;;;;;2.43;1.17;;;3.30;83.10;;;;;;5048716;23;20498;-71
2022/01/07 16:21:06;;;;;;;3.10;1.30;;;3.40;82.80;;;;;;5015658;28;20448;-70
2022/01/07 16:23:33;;;;;;;2.70;1.27;;;3.50;82.20;;;;;;5015518;28;20483;-70
2022/01/07 16:26:00;;;;;;;2.57;1.37;;;3.70;82.10;;;;;;5015929;28;20448;-70
2022/01/07 16:28:26;;;;;;;2.40;1.10;;;3.70;81.60;;;;;;5015510;28;20464;-71
2022/01/07 16:30:54;;;;;;;3.20;1.30;;;3.80;81.30;;;;;;5015467;28;20448;-70
2022/01/07 16:33:21;;;;;;;2.83;1.07;;;3.70;81.20;;;;;;5015319;28;20500;-70
2022/01/07 16:35:48;;;;;;;3.33;1.30;;;3.60;81.30;;;;;;5015362;28;20867;-70
2022/01/07 16:38:16;;;;;;;2.77;1.27;;;3.60;81.90;;;;;;5015193;28;20468;-70
2022/01/07 16:40:43;;;;;;;3.17;1.20;;;3.50;81.80;;;;;;5015153;28;20448;-70
2022/01/07 16:43:09;;;;;;;2.40;1.00;;;3.60;82.10;;;;;;5014804;28;21058;-70
2022/01/07 16:45:36;;;;;;;2.63;1.30;;;3.60;81.70;;;;;;5015207;28;20506;-70
2022/01/07 16:48:05;;;;;;;2.70;1.03;;;3.60;82.10;;;;;;5015040;28;20476;-70
2022/01/07 16:50:32;;;;;;;2.97;1.13;;;3.60;81.30;;;;;;5015092;28;20452;-71
2022/01/07 16:52:58;;;;;;;2.60;1.20;;;3.70;82.00;;;;;;5015064;28;20467;-71
2022/01/07 16:55:26;;;;;;;2.80;1.17;;;3.70;81.00;;;;;;5014992;28;20452;-71
2022/01/07 16:57:53;;;;;;;2.70;1.30;;;3.70;81.20;;;;;;5014965;28;20464;-71
2022/01/07 17:00:20;;;;;;;3.70;1.30;;;3.70;81.40;;;;;;5014925;28;20853;-70
2022/01/07 17:02:47;;;;;;;2.40;1.00;;;3.60;82.00;;;;;;5014782;28;20480;-71
2022/01/07 17:05:15;;;;;;;2.53;1.17;;;3.70;82.30;;;;;;5014905;28;20448;-70
2022/01/07 17:07:42;;;;;;;3.00;1.30;;;3.80;81.80;;;;;;5014752;28;20472;-70
2022/01/07 17:10:10;;;;;;;2.90;1.30;;;3.80;81.60;;;;;;5014740;28;20452;-71
2022/01/07 17:12:37;;;;;;;2.80;1.33;;;3.70;81.90;;;;;;5014435;28;21021;-70
2022/01/07 17:15:05;;;;;;;2.60;1.20;;;3.70;81.70;;;;;;5014640;28;20468;-70